Terminal Aerodrome Forecast
Issued by NWS

Home | Current Version | Previous Version | Text Only | Print | Product List | Glossary On
Versions: 1 2 3 4 5 6 7 8 9 10 11 12 13 14 15 16 17 18 19 20 21 22 23
000
FTAK31 PANC 080535
TAFAGK
TAF
PAGK 080535Z 0806/0906 36004KT P6SM SCT050 BKN080
     FM080900 36005KT P6SM VCSH SCT035 OVC050
     FM081800 36005KT P6SM SCT050 BKN080 WS020/13025KT=

USA.gov is the U.S. government's official web portal to all federal, state and local government web resources and services.